createdAt,value
2023-04-06T00:03:46.318Z,9.50
2023-04-06T00:08:48.645Z,9.73
2023-04-06T00:13:50.442Z,9.50
2023-04-06T00:18:53.023Z,9.65
2023-04-06T00:23:55.470Z,9.38
2023-04-06T00:28:57.615Z,9.48
2023-04-06T00:34:00.167Z,10.45
2023-04-06T00:39:02.558Z,10.05
2023-04-06T00:44:04.427Z,11.05
2023-04-06T00:49:07.510Z,12.77
2023-04-06T00:54:09.510Z,11.77
2023-04-06T00:59:13.046Z,13.35
2023-04-06T01:04:15.313Z,11.50
2023-04-06T01:09:18.086Z,12.13
2023-04-06T01:14:20.480Z,11.30
2023-04-06T01:19:23.533Z,11.57
2023-04-06T01:24:26.057Z,12.27
2023-04-06T01:29:27.989Z,12.38
2023-04-06T01:34:29.915Z,12.02
2023-04-06T01:39:32.001Z,10.85
2023-04-06T01:44:33.885Z,10.52
2023-04-06T01:49:36.015Z,11.27
2023-04-06T01:54:37.808Z,11.40
2023-04-06T01:59:39.998Z,11.15
2023-04-06T02:04:41.920Z,12.25
2023-04-06T02:09:43.881Z,12.20
2023-04-06T02:14:46.131Z,11.18
2023-04-06T02:19:47.971Z,10.48
2023-04-06T02:24:49.811Z,11.20
2023-04-06T02:29:51.607Z,10.52
2023-04-06T02:34:53.622Z,11.40
2023-04-06T02:39:55.757Z,11.05
2023-04-06T02:44:57.557Z,11.25
2023-04-06T02:49:59.557Z,11.15
2023-04-06T02:55:01.585Z,11.38
2023-04-06T03:00:04.053Z,10.73
2023-04-06T03:05:06.295Z,11.68
2023-04-06T03:10:08.793Z,11.55
2023-04-06T03:15:11.643Z,10.30
2023-04-06T03:20:13.909Z,11.80
2023-04-06T03:25:15.897Z,9.55
2023-04-06T03:30:21.295Z,9.57
2023-04-06T03:35:23.401Z,10.45
2023-04-06T03:40:25.489Z,10.68
2023-04-06T03:45:27.277Z,10.93
2023-04-06T03:50:29.291Z,10.18
2023-04-06T03:55:31.452Z,10.98
2023-04-06T04:00:34.243Z,11.50
2023-04-06T04:05:36.152Z,11.40
2023-04-06T04:10:38.310Z,10.45
2023-04-06T04:15:40.663Z,10.63
2023-04-06T04:20:42.542Z,9.00
2023-04-06T04:25:45.021Z,10.35
2023-04-06T04:30:47.740Z,10.95
2023-04-06T04:35:49.685Z,10.85
2023-04-06T04:40:51.505Z,11.13
2023-04-06T04:45:53.614Z,10.93
2023-04-06T04:50:56.496Z,10.93
2023-04-06T04:55:58.407Z,11.20
2023-04-06T05:01:00.192Z,11.32
2023-04-06T05:06:02.159Z,12.18
2023-04-06T05:11:04.148Z,11.82
2023-04-06T05:16:06.280Z,12.57
2023-04-06T05:21:08.390Z,13.48
2023-04-06T05:26:10.183Z,12.98
2023-04-06T05:31:12.315Z,18.58
2023-04-06T05:36:15.384Z,39.22
2023-04-06T05:41:17.603Z,31.05
2023-04-06T05:46:19.820Z,26.05
2023-04-06T05:51:21.624Z,23.33
2023-04-06T05:56:24.928Z,21.75
2023-04-06T06:01:27.001Z,17.75
2023-04-06T06:06:31.248Z,19.52
2023-04-06T06:11:34.129Z,18.65
2023-04-06T06:16:36.543Z,19.42
2023-04-06T06:21:38.686Z,17.73
2023-04-06T06:26:40.950Z,22.05
2023-04-06T06:31:43.123Z,19.52
2023-04-06T06:36:47.077Z,18.27
2023-04-06T06:41:50.183Z,20.73
2023-04-06T06:46:51.976Z,19.50
2023-04-06T06:51:53.946Z,18.48
2023-04-06T06:56:56.091Z,16.92
2023-04-06T07:01:58.037Z,19.80
2023-04-06T07:07:00.233Z,19.77
2023-04-06T07:12:03.265Z,18.45
2023-04-06T07:17:05.287Z,17.10
2023-04-06T07:22:07.560Z,18.88
2023-04-06T07:27:09.649Z,18.10
2023-04-06T07:32:11.872Z,16.05
2023-04-06T07:37:14.064Z,17.25
2023-04-06T07:42:16.034Z,16.67
2023-04-06T07:47:17.893Z,15.95
2023-04-06T07:52:20.027Z,15.07
2023-04-06T07:57:21.868Z,16.13
2023-04-06T08:02:23.851Z,14.63
2023-04-06T08:07:26.219Z,12.02
2023-04-06T08:12:28.120Z,9.50
2023-04-06T08:17:31.511Z,9.93
2023-04-06T08:22:33.548Z,8.52
2023-04-06T08:27:35.642Z,8.63
2023-04-06T08:32:37.517Z,8.13
2023-04-06T08:37:39.649Z,8.52
2023-04-06T08:42:45.168Z,8.02
2023-04-06T08:47:49.739Z,7.82
2023-04-06T08:52:51.734Z,7.93
2023-04-06T08:57:56.171Z,7.07
2023-04-06T09:02:59.906Z,7.65
2023-04-06T09:08:01.968Z,7.18
2023-04-06T09:13:08.602Z,6.60
2023-04-06T09:18:10.534Z,7.22
2023-04-06T09:23:21.312Z,6.07
2023-04-06T09:28:23.148Z,6.65
2023-04-06T09:33:25.459Z,5.53
2023-04-06T09:38:27.609Z,6.50
2023-04-06T09:43:30.743Z,5.60
2023-04-06T09:48:34.719Z,6.18
2023-04-06T09:53:39.895Z,7.50
2023-04-06T09:58:44.395Z,6.22
2023-04-06T10:04:05.064Z,6.68
2023-04-06T10:09:09.492Z,6.82
2023-04-06T10:14:12.844Z,6.60
2023-04-06T10:19:21.830Z,5.88
2023-04-06T10:24:23.942Z,5.95
2023-04-06T10:29:25.926Z,5.88
2023-04-06T10:34:36.710Z,6.43
2023-04-06T10:39:47.749Z,5.75
2023-04-06T10:44:51.294Z,5.82
2023-04-06T10:49:53.272Z,5.35
2023-04-06T10:54:57.668Z,5.55
2023-04-06T10:59:59.400Z,4.65
2023-04-06T11:05:01.865Z,5.43
2023-04-06T11:10:15.502Z,5.13
2023-04-06T11:15:18.568Z,5.47
2023-04-06T11:20:21.018Z,5.28
2023-04-06T11:25:22.862Z,5.38
2023-04-06T11:30:24.952Z,5.25
2023-04-06T11:35:26.772Z,4.95
2023-04-06T11:40:30.670Z,10.30
2023-04-06T11:45:43.217Z,5.13
2023-04-06T11:50:49.035Z,4.80
2023-04-06T11:55:51.227Z,5.03
2023-04-06T12:00:54.512Z,5.15
2023-04-06T12:05:57.151Z,5.38
2023-04-06T12:11:00.651Z,4.97
2023-04-06T12:16:02.478Z,4.53
2023-04-06T12:21:04.603Z,4.65
2023-04-06T12:26:06.560Z,5.10
2023-04-06T12:31:19.617Z,4.78
2023-04-06T12:36:22.300Z,4.57
2023-04-06T12:41:24.477Z,3.67
2023-04-06T12:46:26.391Z,4.28
2023-04-06T12:51:32.468Z,6.35
2023-04-06T12:56:34.417Z,5.65
2023-04-06T13:01:36.393Z,4.03
2023-04-06T13:06:38.131Z,4.00
2023-04-06T13:11:40.079Z,4.40
2023-04-06T13:16:41.936Z,3.50
2023-04-06T13:21:43.846Z,4.60
2023-04-06T13:26:45.866Z,4.07
2023-04-06T13:31:47.940Z,5.10
2023-04-06T13:36:49.727Z,4.68
2023-04-06T13:41:51.943Z,4.38
2023-04-06T13:46:54.652Z,3.90
2023-04-06T13:51:56.743Z,4.43
2023-04-06T13:56:58.760Z,4.70
2023-04-06T14:02:00.979Z,4.45
2023-04-06T14:07:03.677Z,4.95
2023-04-06T14:12:05.993Z,4.68
2023-04-06T14:17:08.013Z,6.03
2023-04-06T14:22:09.910Z,6.90
2023-04-06T14:27:12.334Z,8.20
2023-04-06T14:32:14.425Z,29.73
2023-04-06T14:37:17.454Z,4.85
2023-04-06T14:42:19.482Z,4.32
2023-04-06T14:47:22.475Z,3.97
2023-04-06T14:52:24.350Z,4.43
2023-04-06T14:57:26.174Z,4.38
2023-04-06T15:02:28.080Z,10.05
2023-04-06T15:07:30.415Z,5.03
2023-04-06T15:12:33.186Z,4.85
2023-04-06T15:17:35.198Z,8.93
2023-04-06T15:22:37.255Z,2.95
2023-04-06T15:27:39.526Z,23.13
2023-04-06T15:32:41.571Z,5.28
2023-04-06T15:37:44.645Z,4.53
2023-04-06T15:42:46.666Z,3.35
2023-04-06T15:47:48.913Z,4.07
2023-04-06T15:52:51.266Z,11.45
2023-04-06T15:57:53.191Z,8.77
2023-04-06T16:02:55.252Z,4.80
2023-04-06T16:07:57.341Z,11.13
2023-04-06T16:12:59.328Z,3.90
2023-04-06T16:18:02.996Z,3.50
2023-04-06T16:23:05.530Z,4.93
2023-04-06T16:28:07.616Z,4.00
2023-04-06T16:33:09.930Z,7.43
2023-04-06T16:38:13.011Z,4.15
2023-04-06T16:43:15.151Z,6.57
2023-04-06T16:48:17.133Z,4.55
2023-04-06T16:53:19.176Z,14.77
2023-04-06T16:58:20.963Z,8.15
2023-04-06T17:03:22.914Z,7.63
2023-04-06T17:08:24.901Z,9.70
2023-04-06T17:13:26.982Z,6.75
2023-04-06T17:18:32.601Z,6.75
2023-04-06T17:23:34.948Z,5.72
2023-04-06T17:28:36.955Z,3.80
2023-04-06T17:33:40.760Z,3.58
2023-04-06T17:38:44.450Z,4.00
2023-04-06T17:43:46.498Z,3.42
2023-04-06T17:48:48.696Z,3.95
2023-04-06T17:53:52.107Z,3.88
2023-04-06T17:58:58.974Z,4.25
2023-04-06T18:04:01.281Z,8.80
2023-04-06T18:09:04.070Z,6.75
2023-04-06T18:14:09.342Z,13.50
2023-04-06T18:19:12.250Z,6.63
2023-04-06T18:24:27.322Z,29.50
2023-04-06T18:29:37.202Z,6.75
2023-04-06T18:34:39.927Z,10.13
2023-04-06T18:39:43.689Z,20.67
2023-04-06T18:44:46.360Z,6.35
2023-04-06T18:49:48.392Z,4.18
2023-04-06T18:54:50.294Z,6.43
2023-04-06T18:59:52.308Z,3.70
2023-04-06T19:04:54.204Z,4.43
2023-04-06T19:09:56.753Z,6.75
2023-04-06T19:14:58.485Z,7.22
2023-04-06T19:20:01.098Z,4.15
2023-04-06T19:25:04.037Z,4.22
2023-04-06T19:30:06.659Z,5.20
2023-04-06T19:35:08.721Z,5.85
2023-04-06T19:40:10.880Z,6.50
2023-04-06T19:45:12.988Z,4.40
2023-04-06T19:50:15.835Z,4.97
2023-04-06T19:55:17.939Z,4.82
2023-04-06T20:00:19.875Z,5.63
2023-04-06T20:05:22.688Z,5.22
2023-04-06T20:10:24.504Z,5.38
2023-04-06T20:15:26.873Z,6.43
2023-04-06T20:20:29.237Z,4.35
2023-04-06T20:25:31.907Z,5.00
2023-04-06T20:30:33.989Z,6.45
2023-04-06T20:35:36.032Z,5.88
2023-04-06T20:40:38.461Z,5.10
2023-04-06T20:45:40.292Z,5.10
2023-04-06T20:50:42.747Z,6.25
2023-04-06T20:55:45.427Z,6.20
2023-04-06T21:00:49.586Z,4.80
2023-04-06T21:05:57.598Z,5.28
2023-04-06T21:10:59.708Z,6.65
2023-04-06T21:16:01.964Z,8.40
2023-04-06T21:21:04.156Z,7.55
2023-04-06T21:26:06.301Z,7.63
2023-04-06T21:31:11.014Z,4.50
2023-04-06T21:36:12.830Z,5.95
2023-04-06T21:41:14.948Z,6.53
2023-04-06T21:46:16.936Z,6.43
2023-04-06T21:51:19.792Z,5.47
2023-04-06T21:56:23.424Z,6.68
2023-04-06T22:01:25.293Z,6.53
2023-04-06T22:06:30.370Z,7.85
2023-04-06T22:11:32.446Z,5.40
2023-04-06T22:16:34.572Z,6.00
2023-04-06T22:21:36.682Z,5.95
2023-04-06T22:26:38.860Z,5.82
2023-04-06T22:31:40.835Z,4.90
2023-04-06T22:36:42.990Z,4.25
2023-04-06T22:41:45.096Z,4.72
2023-04-06T22:46:46.944Z,4.57
2023-04-06T22:51:48.677Z,4.82
2023-04-06T22:56:50.956Z,4.25
2023-04-06T23:01:52.984Z,3.83
2023-04-06T23:06:54.902Z,3.90
2023-04-06T23:11:56.946Z,3.70
2023-04-06T23:16:58.685Z,3.53
2023-04-06T23:22:01.244Z,3.22
2023-04-06T23:27:03.321Z,3.28
2023-04-06T23:32:05.518Z,3.08
2023-04-06T23:37:07.755Z,3.28
2023-04-06T23:42:09.810Z,4.32
2023-04-06T23:47:12.259Z,4.28
2023-04-06T23:52:13.978Z,4.13
2023-04-06T23:57:15.814Z,4.03
